Time;durP1;ratioP1;P1;durP2;ratioP2;P2;SDS_P1;SDS_P2;PMS_P1;PMS_P2;Temp;Humidity;BMP_temperature;BMP_pressure;BME280_temperature;BME280_humidity;BME280_pressure;Samples;Min_cycle;Max_cycle;Signal;HPM_P1;HPM_P2
2022/08/14 08:43:31;;;;;;;11.32;6.20;;;;;;;26.82;58.73;99776.53;4769567;27;8416082;-60
2022/08/14 08:46:01;;;;;;;10.98;7.13;;;;;;;26.69;58.07;99762.31;5031887;28;20493;-61
2022/08/14 08:48:43;;;;;;;13.13;8.35;;;;;;;26.71;58.95;99739.72;5035834;28;20456;-60
2022/08/14 08:51:21;;;;;;;16.48;7.53;;;;;;;26.80;58.38;99748.03;5037681;28;20073;-61
2022/08/14 08:55:50;;;;;;;11.77;6.85;;;;;;;26.27;58.56;99649.81;4740604;27;8422117;-58
2022/08/14 08:58:17;;;;;;;11.45;6.40;;;;;;;26.62;59.44;99736.84;5018760;28;20080;-58
2022/08/14 09:00:49;;;;;;;13.27;7.75;;;;;;;26.83;59.94;99750.47;5019908;28;20053;-58
2022/08/14 09:03:19;;;;;;;12.30;8.07;;;;;;;26.77;60.50;99740.19;5024113;28;20050;-56
2022/08/14 09:06:02;;;;;;;9.82;7.15;;;;;;;26.78;60.78;99748.13;5010716;28;20061;-58
2022/08/14 09:08:33;;;;;;;11.82;7.38;;;;;;;26.71;60.64;99744.22;5012371;28;20033;-58
2022/08/14 09:11:05;;;;;;;9.38;6.72;;;;;;;26.40;60.61;99741.16;5026183;28;20432;-56
2022/08/14 09:13:32;;;;;;;7.90;5.60;;;;;;;26.40;59.66;99734.94;5010398;28;20632;-58
2022/08/14 09:15:58;;;;;;;12.52;6.78;;;;;;;26.67;58.76;99723.91;5009248;28;20056;-58
2022/08/14 09:18:26;;;;;;;8.95;7.13;;;;;;;26.78;58.59;99705.06;5011185;28;20751;-58
2022/08/14 09:20:54;;;;;;;10.63;6.53;;;;;;;26.85;58.16;99724.28;5016279;28;20053;-58
2022/08/14 09:23:21;;;;;;;10.90;6.47;;;;;;;26.92;58.52;99726.38;5010231;28;20038;-58
2022/08/14 09:25:49;;;;;;;10.52;6.07;;;;;;;27.08;58.22;99725.16;5026053;28;20057;-58
2022/08/14 09:28:17;;;;;;;14.32;6.85;;;;;;;27.12;57.40;99713.16;5012436;28;20054;-57
2022/08/14 09:30:55;;;;;;;10.30;5.85;;;;;;;27.22;57.38;99699.84;5008213;28;20050;-58
2022/08/14 09:33:48;;;;;;;9.65;5.40;;;;;;;27.16;57.21;99696.63;5014030;28;20110;-58
2022/08/14 09:40:54;;;;;;;11.30;6.75;;;;;;;22.76;73.19;99563.59;4745466;27;8332462;-75
2022/08/14 09:43:42;;;;;;;8.07;6.13;;;;;;;23.15;71.26;99543.25;5013890;28;20060;-76
2022/08/14 09:46:09;;;;;;;10.43;7.30;;;;;;;23.26;78.12;99579.16;5022365;28;20061;-77
2022/08/14 09:48:36;;;;;;;9.55;6.53;;;;;;;23.36;73.52;99605.22;5013743;28;20076;-77
2022/08/14 09:51:04;;;;;;;12.95;6.85;;;;;;;23.69;75.46;99653.97;4997362;28;20527;-77
2022/08/14 09:53:36;;;;;;;11.32;6.68;;;;;;;23.31;73.73;99587.75;5020148;28;20039;-77
2022/08/14 09:56:03;;;;;;;9.68;6.65;;;;;;;23.41;72.54;99580.81;5004088;28;20099;-78
2022/08/14 09:58:44;;;;;;;9.88;7.22;;;;;;;23.28;78.14;99569.22;5001886;28;20057;-78
2022/08/14 10:01:15;;;;;;;10.43;7.30;;;;;;;23.24;71.67;99562.34;4993659;28;20520;-78
2022/08/14 10:03:49;;;;;;;12.57;6.72;;;;;;;23.54;71.56;99613.00;5003801;28;20082;-76
2022/08/14 10:06:19;;;;;;;15.65;6.70;;;;;;;23.25;70.96;99564.94;5012408;28;20061;-77
2022/08/14 10:08:56;;;;;;;8.15;5.20;;;;;;;23.50;70.84;99600.78;5002134;28;20329;-78
2022/08/14 10:11:28;;;;;;;16.55;7.50;;;;;;;23.34;70.61;99536.66;5001522;28;20041;-76
2022/08/14 10:25:24;;;;;;;;;;;;;;;;;;;;;
2022/08/14 10:31:54;;;;;;;;;;;;;;;;;;;;;
2022/08/14 11:07:31;;;;;;;;;;;;;;;;;;;;;
2022/08/14 13:38:27;;;;;;;19.73;10.05;;;;;;;26.84;60.28;99515.28;5461349;24;20090;-74
2022/08/14 13:40:56;;;;;;;347.52;247.48;;;;;;;26.70;62.10;99470.66;4881812;29;20049;-80
2022/08/14 13:43:32;;;;;;;578.78;459.67;;;;;;;26.84;61.00;99450.69;4865839;29;20036;-77
2022/08/14 13:45:57;;;;;;;1089.40;647.67;;;;;;;27.54;61.22;99568.69;4881211;29;20147;-73
2022/08/14 13:48:23;;;;;;;310.98;221.70;;;;;;;27.28;60.59;99568.19;4880211;29;20045;-80
2022/08/14 13:50:54;;;;;;;1413.88;852.08;;;;;;;27.16;61.06;99577.28;4867776;29;20799;-75
2022/08/14 13:53:22;;;;;;;328.75;252.57;;;;;;;27.00;59.88;99571.44;4873083;29;20127;-74
2022/08/14 13:55:51;;;;;;;1655.18;900.25;;;;;;;26.73;61.66;99511.63;4883216;29;20039;-77
2022/08/14 13:58:19;;;;;;;398.60;319.05;;;;;;;26.73;62.99;99522.38;4879296;29;20029;-73
2022/08/14 14:00:45;;;;;;;97.20;64.97;;;;;;;26.64;60.56;99566.19;4882498;29;20128;-74
2022/08/14 14:03:12;;;;;;;65.45;42.22;;;;;;;26.04;60.22;99514.44;4882312;29;20060;-72
2022/08/14 14:05:39;;;;;;;110.07;77.65;;;;;;;26.40;60.17;99569.00;4866910;29;20053;-75
2022/08/14 14:08:06;;;;;;;87.43;58.80;;;;;;;26.20;59.82;99550.88;4882023;29;20044;-74
2022/08/14 14:10:35;;;;;;;125.03;90.03;;;;;;;25.94;59.56;99526.03;4870562;29;20120;-75
2022/08/14 14:13:03;;;;;;;120.97;87.80;;;;;;;26.17;60.78;99573.50;4869418;29;20078;-71
2022/08/14 14:15:30;;;;;;;98.25;68.93;;;;;;;26.15;61.48;99562.00;4880302;29;20101;-72
2022/08/14 14:17:58;;;;;;;40.55;30.95;;;;;;;25.54;61.90;99508.44;4880111;29;20175;-75
2022/08/14 14:20:24;;;;;;;106.45;69.07;;;;;;;26.01;61.58;99555.03;4883631;29;20044;-75
2022/08/14 14:22:50;;;;;;;101.32;72.63;;;;;;;25.85;61.78;99523.06;4886080;29;20400;-76
2022/08/14 14:25:18;;;;;;;188.18;135.38;;;;;;;25.84;60.99;99480.19;4883711;29;20106;-75
2022/08/14 14:27:47;;;;;;;109.00;79.13;;;;;;;26.22;60.63;99559.69;4886398;29;20055;-73
2022/08/14 14:30:15;;;;;;;240.95;179.20;;;;;;;26.05;59.98;99483.88;4884314;29;20064;-70
2022/08/14 14:32:44;;;;;;;86.68;60.50;;;;;;;26.39;60.09;99561.06;4886200;29;21015;-75
2022/08/14 14:35:15;;;;;;;83.18;54.70;;;;;;;26.13;60.27;99555.03;4872208;29;20036;-73
2022/08/14 14:37:42;;;;;;;105.53;69.63;;;;;;;26.09;60.79;99565.19;4871788;29;20047;-73
2022/08/14 14:40:13;;;;;;;99.70;67.85;;;;;;;26.07;60.74;99567.13;4885165;29;20109;-74
2022/08/14 14:42:51;;;;;;;85.28;61.35;;;;;;;25.82;60.07;99511.69;4886321;29;20528;-71
2022/08/14 14:45:21;;;;;;;82.28;55.58;;;;;;;26.24;60.26;99560.41;4887000;29;20063;-76
2022/08/14 14:47:52;;;;;;;77.28;50.50;;;;;;;26.27;60.73;99568.25;4887614;29;20112;-74
2022/08/14 14:50:20;;;;;;;54.80;34.58;;;;;;;26.21;60.35;99566.06;4883885;29;20334;-74
2022/08/14 14:52:48;;;;;;;57.85;40.13;;;;;;;26.33;59.85;99559.69;4884709;29;20064;-71
2022/08/14 14:55:14;;;;;;;42.65;28.90;;;;;;;26.17;60.50;99570.81;4873335;29;20051;-75
2022/08/14 14:57:42;;;;;;;57.25;40.90;;;;;;;26.21;60.45;99555.28;4873169;29;20060;-75
2022/08/14 15:00:13;;;;;;;53.22;35.35;;;;;;;25.81;60.79;99496.56;4884730;29;25435;-74
2022/08/14 15:02:46;;;;;;;14.80;11.02;;;;;;;26.03;60.69;99547.69;4885749;29;20131;-74
2022/08/14 15:05:15;;;;;;;55.50;36.13;;;;;;;26.11;60.72;99539.03;4883725;29;20048;-73
2022/08/14 15:07:41;;;;;;;42.03;27.65;;;;;;;26.22;60.54;99541.75;4885902;29;20048;-75
2022/08/14 15:10:09;;;;;;;15.38;11.25;;;;;;;25.93;60.49;99522.50;4886388;29;20079;-72
2022/08/14 15:12:35;;;;;;;27.52;17.83;;;;;;;26.03;60.89;99536.06;4887007;29;20084;-74
2022/08/14 15:15:01;;;;;;;15.85;11.50;;;;;;;25.96;60.64;99527.63;4887419;29;20416;-77
2022/08/14 15:17:34;;;;;;;21.60;14.48;;;;;;;25.64;60.83;99479.06;4884478;29;20069;-76
2022/08/14 15:20:02;;;;;;;21.25;15.73;;;;;;;25.68;60.97;99472.44;4869359;29;20188;-71
2022/08/14 15:22:28;;;;;;;21.75;14.45;;;;;;;26.25;59.90;99532.56;4883557;29;20056;-74
2022/08/14 15:24:55;;;;;;;15.10;10.00;;;;;;;25.48;60.65;99422.97;4883089;29;20052;-70
2022/08/14 15:27:20;;;;;;;23.40;16.13;;;;;;;26.10;60.26;99523.84;4886272;29;20044;-73
2022/08/14 15:29:46;;;;;;;14.15;12.20;;;;;;;26.03;61.47;99519.94;4888851;29;20370;-75
2022/08/14 15:32:19;;;;;;;19.67;14.98;;;;;;;25.78;60.53;99470.78;4882520;29;20055;-74
2022/08/14 15:34:45;;;;;;;17.05;14.25;;;;;;;25.92;59.61;99468.84;4870455;29;20051;-75
2022/08/14 15:37:11;;;;;;;18.08;13.05;;;;;;;26.15;59.13;99528.88;4857342;29;20060;-74
2022/08/14 15:39:37;;;;;;;19.63;9.50;;;;;;;25.90;59.82;99531.66;4878497;29;20061;-71
2022/08/14 15:42:04;;;;;;;10.52;7.57;;;;;;;25.69;59.51;99549.44;4878382;29;20056;-74
2022/08/14 15:44:31;;;;;;;21.70;15.32;;;;;;;26.09;59.69;99546.34;4863331;29;21028;-74
2022/08/14 15:47:00;;;;;;;881.95;711.42;;;;;;;25.77;62.33;99454.75;4866668;29;20055;-90
2022/08/14 15:49:30;;;;;;;1999.90;999.90;;;;;;;25.91;61.63;99478.75;4867156;29;20048;-84
2022/08/14 15:51:58;;;;;;;837.00;629.53;;;;;;;26.47;61.43;99542.47;4865260;29;20502;-82
2022/08/14 15:54:26;;;;;;;972.55;478.88;;;;;;;26.20;60.62;99554.44;4864575;29;20047;-76
2022/08/14 15:57:03;;;;;;;402.98;317.88;;;;;;;26.46;61.74;99549.69;4864690;29;20084;-77
2022/08/14 16:02:13;;;;;;;35.80;24.90;;;;;;;25.73;59.69;99558.97;4864930;29;20094;-74
2022/08/14 16:04:39;;;;;;;35.15;27.35;;;;;;;24.95;59.21;99466.34;4863002;29;20057;-77
2022/08/14 16:07:05;;;;;;;24.05;17.50;;;;;;;25.24;59.62;99528.63;4867579;29;20497;-73
2022/08/14 16:09:30;;;;;;;46.92;31.13;;;;;;;24.97;60.37;99515.41;4862944;29;20508;-72
2022/08/14 16:11:56;;;;;;;59.10;40.95;;;;;;;25.03;60.03;99490.78;4848247;29;20092;-71
2022/08/14 16:14:21;;;;;;;61.40;44.45;;;;;;;25.00;58.79;99471.34;4863035;29;20049;-74
2022/08/14 16:16:48;;;;;;;56.22;38.42;;;;;;;25.24;59.67;99487.50;4863881;29;20095;-69
2022/08/14 16:19:17;;;;;;;30.30;12.63;;;;;;;25.14;59.68;99489.13;4864956;29;20450;-72
2022/08/14 16:21:43;;;;;;;15.00;11.73;;;;;;;24.91;60.36;99478.28;4863390;29;20037;-73
2022/08/14 16:24:11;;;;;;;84.63;52.38;;;;;;;25.25;58.28;99513.38;4862413;29;20771;-72
2022/08/14 16:26:37;;;;;;;68.43;42.85;;;;;;;25.17;58.39;99483.50;4878425;29;20044;-72
2022/08/14 16:29:06;;;;;;;92.82;63.63;;;;;;;25.45;57.26;99474.22;4866226;29;20583;-69
2022/08/14 16:31:32;;;;;;;113.65;82.20;;;;;;;25.61;57.37;99498.94;4861795;29;20041;-72
2022/08/14 16:33:58;;;;;;;47.10;33.33;;;;;;;25.03;58.06;99430.88;4863894;29;20059;-72
2022/08/14 16:36:27;;;;;;;37.42;26.05;;;;;;;25.38;58.52;99497.16;4879224;29;22589;-69
2022/08/14 16:38:55;;;;;;;23.35;17.23;;;;;;;25.37;59.18;99490.09;4864060;29;20073;-73
2022/08/14 16:41:29;;;;;;;54.95;39.65;;;;;;;25.45;59.59;99506.47;4867328;29;20052;-71
2022/08/14 16:44:02;;;;;;;50.72;37.55;;;;;;;25.83;58.10;99543.84;4887359;29;20122;-71
2022/08/14 16:46:43;;;;;;;36.03;25.17;;;;;;;25.28;58.43;99460.25;4886328;29;20087;-71
2022/08/14 16:49:13;;;;;;;27.48;17.33;;;;;;;25.56;60.18;99535.22;4882905;29;20056;-71
2022/08/14 16:51:40;;;;;;;16.35;9.15;;;;;;;25.17;61.41;99538.09;4879256;29;20048;-71
2022/08/14 16:54:15;;;;;;;8.80;7.25;;;;;;;24.67;60.63;99472.03;4881522;29;20059;-71
2022/08/14 16:56:43;;;;;;;12.52;8.25;;;;;;;25.23;60.44;99547.53;4868732;29;20063;-70
2022/08/14 16:59:18;;;;;;;12.88;7.65;;;;;;;24.51;60.05;99446.34;4882415;29;20040;-73
2022/08/14 17:01:57;;;;;;;16.35;10.25;;;;;;;24.90;59.96;99548.19;4879144;29;20075;-70
2022/08/14 17:04:29;;;;;;;15.32;10.95;;;;;;;24.45;57.37;99470.91;4867590;29;20116;-72
2022/08/14 17:06:59;;;;;;;9.27;8.15;;;;;;;24.96;59.95;99547.72;4880337;29;20531;-72
2022/08/14 17:09:49;;;;;;;19.27;8.50;;;;;;;25.04;58.25;99558.75;4880258;29;20883;-72
2022/08/14 17:12:19;;;;;;;14.98;8.18;;;;;;;24.52;60.49;99480.25;4881469;29;20055;-71
2022/08/14 17:15:06;;;;;;;15.75;11.75;;;;;;;24.66;59.94;99494.50;4884709;29;20049;-72
2022/08/14 17:17:34;;;;;;;16.52;11.68;;;;;;;25.11;60.16;99568.06;4884469;29;20051;-72
2022/08/14 17:20:03;;;;;;;13.52;10.27;;;;;;;25.00;59.63;99547.38;4882805;29;20040;-72
2022/08/14 17:23:00;;;;;;;14.75;9.95;;;;;;;25.17;60.36;99577.47;4866214;29;20140;-72
2022/08/14 17:25:28;;;;;;;14.25;9.25;;;;;;;24.58;60.15;99497.72;4818362;29;20065;-72
2022/08/14 17:28:17;;;;;;;18.95;11.50;;;;;;;25.22;59.20;99575.38;4880255;29;20060;-72
2022/08/14 17:31:10;;;;;;;14.00;8.88;;;;;;;24.28;60.63;99441.75;4874184;29;20136;-83
2022/08/14 22:15:14;;;;;;;13.38;10.50;;;;;;;20.11;100.00;99571.88;4858656;29;20048;-82
2022/08/14 22:18:15;;;;;;;10.93;9.77;;;;;;;20.09;100.00;99573.75;4833057;29;20049;-81
2022/08/14 22:24:20;;;;;;;12.88;10.63;;;;;;;20.60;100.00;99643.91;4845266;29;20052;-81
2022/08/14 22:27:19;;;;;;;15.50;11.95;;;;;;;20.81;100.00;99665.88;4813344;29;20073;-81
2022/08/14 22:44:03;;;;;;;14.32;10.88;;;;;;;20.15;100.00;99589.41;4828653;29;20193;-82
2022/08/14 23:11:20;;;;;;;12.32;8.88;;;;;;;20.92;100.00;99686.63;4775694;29;20074;-82
2022/08/14 23:24:48;;;;;;;16.67;9.80;;;;;;;20.34;100.00;99596.41;4697605;30;20699;-81
